createdAt,value
2023-04-29T00:01:48.975Z,9.53
2023-04-29T00:04:17.331Z,8.00
2023-04-29T00:06:47.104Z,8.97
2023-04-29T00:09:15.178Z,8.57
2023-04-29T00:11:43.434Z,10.00
2023-04-29T00:14:11.783Z,9.33
2023-04-29T00:16:39.884Z,8.67
2023-04-29T00:19:07.991Z,9.20
2023-04-29T00:21:36.070Z,9.07
2023-04-29T00:24:06.126Z,9.50
2023-04-29T00:26:34.996Z,8.77
2023-04-29T00:29:03.066Z,11.03
2023-04-29T00:31:32.861Z,9.73
2023-04-29T00:34:01.114Z,11.27
2023-04-29T00:36:29.450Z,12.33
2023-04-29T00:38:57.738Z,11.63
2023-04-29T00:41:27.280Z,10.30
2023-04-29T00:43:55.364Z,9.93
2023-04-29T00:46:23.487Z,10.83
2023-04-29T00:48:51.578Z,9.77
2023-04-29T00:51:23.947Z,10.20
2023-04-29T00:53:51.980Z,10.73
2023-04-29T00:56:21.047Z,13.03
2023-04-29T00:58:51.892Z,11.47
2023-04-29T01:01:20.472Z,12.57
2023-04-29T01:03:48.670Z,12.73
2023-04-29T01:06:24.177Z,11.87
2023-04-29T01:08:57.765Z,13.40
2023-04-29T01:11:26.152Z,13.87
2023-04-29T01:13:59.660Z,12.70
2023-04-29T01:16:31.842Z,15.50
2023-04-29T01:19:00.134Z,15.97
2023-04-29T01:21:28.237Z,16.20
2023-04-29T01:24:00.858Z,18.07
2023-04-29T01:26:28.911Z,16.57
2023-04-29T01:29:02.852Z,20.80
2023-04-29T01:31:33.020Z,19.07
2023-04-29T01:34:06.071Z,19.00
2023-04-29T01:36:42.878Z,19.60
2023-04-29T01:39:15.848Z,15.10
2023-04-29T01:41:45.230Z,17.43
2023-04-29T01:44:16.549Z,21.13
2023-04-29T01:46:45.226Z,19.20
2023-04-29T01:49:14.240Z,19.30
2023-04-29T01:51:42.416Z,23.30
2023-04-29T01:54:11.909Z,22.10
2023-04-29T01:56:40.200Z,19.23
2023-04-29T01:59:12.192Z,19.30
2023-04-29T02:01:40.213Z,21.70
2023-04-29T02:04:08.660Z,21.37
2023-04-29T02:06:36.783Z,21.00
2023-04-29T02:09:04.902Z,21.40
2023-04-29T02:11:34.546Z,22.50
2023-04-29T02:14:02.720Z,27.67
2023-04-29T02:16:30.883Z,29.93
2023-04-29T02:18:58.993Z,26.80
2023-04-29T02:21:27.179Z,26.27
2023-04-29T02:23:55.567Z,27.50
2023-04-29T02:26:23.767Z,29.33
2023-04-29T02:28:53.603Z,26.63
2023-04-29T02:31:21.656Z,25.60
2023-04-29T02:33:49.874Z,26.37
2023-04-29T02:36:18.314Z,27.53
2023-04-29T02:38:46.423Z,27.30
2023-04-29T02:41:18.160Z,26.00
2023-04-29T02:43:46.589Z,29.63
2023-04-29T02:46:16.443Z,26.10
2023-04-29T02:48:44.659Z,24.00
2023-04-29T02:51:13.040Z,24.03
2023-04-29T02:53:41.120Z,25.83
2023-04-29T02:56:09.218Z,26.80
2023-04-29T02:58:37.270Z,26.93
2023-04-29T03:01:05.899Z,25.30
2023-04-29T03:03:35.524Z,25.23
2023-04-29T03:06:04.653Z,26.33
2023-04-29T03:08:36.221Z,27.73
2023-04-29T03:11:04.544Z,26.10
2023-04-29T03:13:32.597Z,26.00
2023-04-29T03:16:01.497Z,23.90
2023-04-29T03:18:29.582Z,27.40
2023-04-29T03:20:59.433Z,29.17
2023-04-29T03:23:28.089Z,26.70
2023-04-29T03:25:56.841Z,23.83
2023-04-29T03:28:25.051Z,24.93
2023-04-29T03:30:53.305Z,23.83
2023-04-29T03:33:21.489Z,25.63
2023-04-29T03:35:55.818Z,25.07
2023-04-29T03:38:26.027Z,25.03
2023-04-29T03:40:54.035Z,26.47
2023-04-29T03:43:22.111Z,29.20
2023-04-29T03:45:50.302Z,22.80
2023-04-29T03:48:18.394Z,28.67
2023-04-29T03:50:46.481Z,22.93
2023-04-29T03:53:15.250Z,24.83
2023-04-29T03:55:44.704Z,22.70
2023-04-29T03:58:12.741Z,22.40
2023-04-29T04:00:40.857Z,26.03
2023-04-29T04:03:09.200Z,25.33
2023-04-29T04:05:37.434Z,20.80
2023-04-29T04:08:06.171Z,22.80
2023-04-29T04:10:34.206Z,21.57
2023-04-29T04:13:03.722Z,26.43
2023-04-29T04:15:31.859Z,21.67
2023-04-29T04:17:59.962Z,22.60
2023-04-29T04:20:28.113Z,24.10
2023-04-29T04:22:56.216Z,18.73
2023-04-29T04:25:24.339Z,21.90
2023-04-29T04:27:52.391Z,20.60
2023-04-29T04:30:21.931Z,21.13
2023-04-29T04:32:50.043Z,21.20
2023-04-29T04:35:18.294Z,21.13
2023-04-29T04:37:46.413Z,18.67
2023-04-29T04:40:15.044Z,19.67
2023-04-29T04:42:43.119Z,20.70
2023-04-29T04:45:11.958Z,18.60
2023-04-29T04:47:41.701Z,18.47
2023-04-29T04:50:10.352Z,21.23
2023-04-29T04:52:38.444Z,20.23
2023-04-29T04:55:07.125Z,17.97
2023-04-29T04:57:35.281Z,19.50
2023-04-29T05:00:05.219Z,17.33
2023-04-29T05:02:33.448Z,18.10
2023-04-29T05:05:03.050Z,17.47
2023-04-29T05:07:31.272Z,16.43
2023-04-29T05:09:59.736Z,18.30
2023-04-29T05:12:30.934Z,16.47
2023-04-29T05:14:59.174Z,18.80
2023-04-29T05:17:27.317Z,17.10
2023-04-29T05:19:55.457Z,17.60
2023-04-29T05:22:25.135Z,18.97
2023-04-29T05:24:54.350Z,18.40
2023-04-29T05:27:22.408Z,15.23
2023-04-29T05:29:50.787Z,17.13
2023-04-29T05:32:19.141Z,17.30
2023-04-29T05:34:47.269Z,15.80
2023-04-29T05:37:15.883Z,17.50
2023-04-29T05:39:45.405Z,16.67
2023-04-29T05:42:13.480Z,16.60
2023-04-29T05:44:41.635Z,15.77
2023-04-29T05:47:09.727Z,16.53
2023-04-29T05:49:37.821Z,15.47
2023-04-29T05:52:06.827Z,17.90
2023-04-29T05:54:35.337Z,15.57
2023-04-29T05:57:05.412Z,18.80
2023-04-29T05:59:33.750Z,18.53
2023-04-29T06:02:01.905Z,15.67
2023-04-29T06:04:30.205Z,17.43
2023-04-29T06:07:09.080Z,14.27
2023-04-29T06:09:37.209Z,15.63
2023-04-29T06:12:07.150Z,16.57
2023-04-29T06:14:35.325Z,14.80
2023-04-29T06:17:09.579Z,13.57
2023-04-29T06:19:38.017Z,15.80
2023-04-29T06:22:06.171Z,16.53
2023-04-29T06:24:34.203Z,14.60
2023-04-29T06:27:04.297Z,15.20
2023-04-29T06:29:33.763Z,15.13
2023-04-29T06:32:02.033Z,14.30
2023-04-29T06:34:30.170Z,21.20
2023-04-29T06:36:58.219Z,15.87
2023-04-29T06:39:26.293Z,14.27
2023-04-29T06:41:54.392Z,16.33
2023-04-29T06:44:22.520Z,15.37
2023-04-29T06:46:51.975Z,15.47
2023-04-29T06:49:20.034Z,14.50
2023-04-29T06:51:48.598Z,13.47
2023-04-29T06:54:16.773Z,12.67
2023-04-29T06:56:44.867Z,14.30
2023-04-29T06:59:13.680Z,13.13
2023-04-29T07:01:44.194Z,12.83
2023-04-29T07:04:14.403Z,14.60
2023-04-29T07:06:46.732Z,13.47
2023-04-29T07:09:15.076Z,13.83
2023-04-29T07:11:43.430Z,12.70
2023-04-29T07:14:11.606Z,14.50
2023-04-29T07:16:39.697Z,15.23
2023-04-29T07:19:07.818Z,12.70
2023-04-29T07:21:37.475Z,15.70
2023-04-29T07:24:06.535Z,13.73
2023-04-29T07:26:34.564Z,13.97
2023-04-29T07:29:08.592Z,14.27
2023-04-29T07:31:38.404Z,13.00
2023-04-29T07:34:06.709Z,13.67
2023-04-29T07:36:36.250Z,12.67
2023-04-29T07:39:05.010Z,15.87
2023-04-29T07:41:33.108Z,12.07
2023-04-29T07:44:01.213Z,12.67
2023-04-29T07:46:29.319Z,15.03
2023-04-29T07:48:58.392Z,12.90
2023-04-29T07:51:29.142Z,12.90
2023-04-29T07:53:58.885Z,12.00
2023-04-29T07:56:27.094Z,11.20
2023-04-29T07:58:55.753Z,14.17
2023-04-29T08:01:23.759Z,14.37
2023-04-29T08:03:52.105Z,13.70
2023-04-29T08:06:22.250Z,13.53
2023-04-29T08:08:50.593Z,15.73
2023-04-29T08:11:20.585Z,13.30
2023-04-29T08:13:49.441Z,13.73
2023-04-29T08:16:17.951Z,12.70
2023-04-29T08:18:56.315Z,13.80
2023-04-29T08:21:24.463Z,14.97
2023-04-29T08:23:53.592Z,11.60
2023-04-29T08:26:24.113Z,12.47
2023-04-29T08:28:52.288Z,12.67
2023-04-29T08:31:20.691Z,14.77
2023-04-29T08:33:48.870Z,13.47
2023-04-29T08:36:19.572Z,13.23
2023-04-29T08:38:48.941Z,14.77
2023-04-29T08:41:17.019Z,13.33
2023-04-29T08:43:46.464Z,15.23
2023-04-29T08:46:14.642Z,13.27
2023-04-29T08:48:50.267Z,11.90
2023-04-29T08:51:18.408Z,13.57
2023-04-29T08:53:46.479Z,15.27
2023-04-29T08:56:17.436Z,14.00
2023-04-29T08:58:47.012Z,14.07
2023-04-29T09:01:15.158Z,16.67
2023-04-29T09:03:46.234Z,15.50
2023-04-29T09:06:14.469Z,12.77
2023-04-29T09:08:42.545Z,16.70
2023-04-29T09:11:11.917Z,15.30
2023-04-29T09:13:40.062Z,14.23
2023-04-29T09:16:13.454Z,14.20
2023-04-29T09:18:48.102Z,13.40
2023-04-29T09:21:19.069Z,13.03
2023-04-29T09:23:56.027Z,13.87
2023-04-29T09:26:24.244Z,15.50
2023-04-29T09:29:07.948Z,12.80
2023-04-29T09:31:38.708Z,13.20
2023-04-29T09:34:13.163Z,12.43
2023-04-29T09:36:44.247Z,14.90
2023-04-29T09:39:13.492Z,12.90
2023-04-29T09:41:42.675Z,14.30
2023-04-29T09:44:11.320Z,17.70
2023-04-29T09:46:40.866Z,16.00
2023-04-29T09:49:24.975Z,14.07
2023-04-29T09:51:56.876Z,16.30
2023-04-29T09:54:25.894Z,16.60
2023-04-29T09:56:54.429Z,13.43
2023-04-29T09:59:25.615Z,15.00
2023-04-29T10:01:55.756Z,15.20
2023-04-29T10:04:24.888Z,14.70
2023-04-29T10:06:55.201Z,19.70
2023-04-29T10:09:23.949Z,15.73
2023-04-29T10:11:53.326Z,15.43
2023-04-29T10:14:22.007Z,19.00
2023-04-29T10:16:51.028Z,15.00
2023-04-29T10:19:27.741Z,13.77
2023-04-29T10:21:56.545Z,15.57
2023-04-29T10:24:24.656Z,14.97
2023-04-29T10:26:53.568Z,15.50
2023-04-29T10:29:21.703Z,16.60
2023-04-29T10:31:52.979Z,14.77
2023-04-29T10:34:21.204Z,16.10
2023-04-29T10:36:50.962Z,17.07
2023-04-29T10:39:24.447Z,17.20
2023-04-29T10:41:52.484Z,16.07
2023-04-29T10:44:20.729Z,16.03
2023-04-29T10:46:48.844Z,17.57
2023-04-29T10:49:16.955Z,15.20
2023-04-29T10:51:45.888Z,15.57
2023-04-29T10:54:16.290Z,16.83
2023-04-29T10:56:45.474Z,16.23
2023-04-29T10:59:14.449Z,16.80
2023-04-29T11:01:44.396Z,12.73
2023-04-29T11:04:12.773Z,15.17
2023-04-29T11:06:48.668Z,15.93
2023-04-29T11:09:37.341Z,17.10
2023-04-29T11:12:06.248Z,15.20
2023-04-29T11:14:37.661Z,18.83
2023-04-29T11:17:09.958Z,13.80
2023-04-29T11:19:42.214Z,14.13
2023-04-29T11:22:12.921Z,13.87
2023-04-29T11:24:52.826Z,13.57
2023-04-29T11:27:23.027Z,14.83
2023-04-29T11:29:52.013Z,18.03
2023-04-29T11:32:22.827Z,15.23
2023-04-29T11:34:51.381Z,14.63
2023-04-29T11:37:23.585Z,14.53
2023-04-29T11:40:01.189Z,17.13
2023-04-29T11:42:32.168Z,14.47
2023-04-29T11:45:00.640Z,13.77
2023-04-29T11:47:29.971Z,13.33
2023-04-29T11:50:04.843Z,18.13
2023-04-29T11:52:32.963Z,16.20
2023-04-29T11:55:02.493Z,14.77
2023-04-29T11:57:30.624Z,13.60
2023-04-29T11:59:59.008Z,12.03
2023-04-29T12:02:31.515Z,11.87
2023-04-29T12:05:01.517Z,13.93
2023-04-29T12:07:30.238Z,13.13
2023-04-29T12:09:58.361Z,14.30
2023-04-29T12:12:28.460Z,12.40
2023-04-29T12:14:56.781Z,14.47
2023-04-29T12:17:25.329Z,15.13
2023-04-29T12:19:56.246Z,12.37
2023-04-29T12:22:24.378Z,13.47
2023-04-29T12:24:54.706Z,11.97
2023-04-29T12:27:22.989Z,13.07
2023-04-29T12:29:53.413Z,11.53
2023-04-29T12:32:24.805Z,13.70
2023-04-29T12:34:53.733Z,13.30
2023-04-29T12:37:22.891Z,12.80
2023-04-29T12:39:51.437Z,15.27
2023-04-29T12:42:19.588Z,12.90
2023-04-29T12:44:48.302Z,11.03
2023-04-29T12:47:17.994Z,13.43
2023-04-29T12:49:46.874Z,12.03
2023-04-29T12:52:14.999Z,10.93
2023-04-29T12:54:44.095Z,12.33
2023-04-29T12:57:12.487Z,11.43
2023-04-29T12:59:41.426Z,11.33
2023-04-29T13:02:10.063Z,11.43
2023-04-29T13:04:40.226Z,9.87
2023-04-29T13:07:08.527Z,10.80
2023-04-29T13:09:38.268Z,10.17
2023-04-29T13:12:09.512Z,11.10
2023-04-29T13:14:37.871Z,11.60
2023-04-29T13:17:06.442Z,12.07
2023-04-29T13:19:49.795Z,11.67
2023-04-29T13:22:26.536Z,11.47
2023-04-29T13:24:54.876Z,9.30
2023-04-29T13:27:23.307Z,10.83
2023-04-29T13:29:51.534Z,9.73
2023-04-29T13:34:52.573Z,10.43
2023-04-29T13:37:22.265Z,8.77
2023-04-29T13:39:56.845Z,10.03
2023-04-29T13:42:27.162Z,9.93
2023-04-29T13:44:57.311Z,9.57
2023-04-29T13:47:28.188Z,10.43
2023-04-29T13:50:40.176Z,8.97
2023-04-29T13:53:10.541Z,9.60
2023-04-29T13:56:47.602Z,9.67
2023-04-29T13:59:28.094Z,10.10
2023-04-29T14:04:00.579Z,8.47
2023-04-29T14:06:29.465Z,8.37
2023-04-29T14:09:00.560Z,10.07
2023-04-29T14:11:29.823Z,9.20
2023-04-29T14:13:58.064Z,8.40
2023-04-29T14:16:26.270Z,8.90
2023-04-29T14:18:54.336Z,8.47
2023-04-29T14:21:22.795Z,8.73
2023-04-29T14:23:51.039Z,8.30
2023-04-29T14:26:28.055Z,9.00
2023-04-29T14:28:58.441Z,8.53
2023-04-29T14:31:28.096Z,9.80
2023-04-29T14:33:56.914Z,8.27
2023-04-29T14:36:25.092Z,7.90
2023-04-29T14:38:53.274Z,8.20
2023-04-29T14:41:22.756Z,7.63
2023-04-29T14:43:53.951Z,8.67
2023-04-29T14:46:22.556Z,7.53
2023-04-29T14:48:50.875Z,7.43
2023-04-29T14:51:18.928Z,7.90
2023-04-29T14:53:46.990Z,8.00
2023-04-29T14:56:15.093Z,7.83
2023-04-29T14:58:44.559Z,8.07
2023-04-29T15:01:26.137Z,8.47
2023-04-29T15:03:54.756Z,7.70
2023-04-29T15:06:22.912Z,7.97
2023-04-29T15:08:51.128Z,8.10
2023-04-29T15:11:19.286Z,8.53
2023-04-29T15:13:48.707Z,7.20
2023-04-29T15:16:16.869Z,7.97
2023-04-29T15:18:45.826Z,7.50
2023-04-29T15:21:14.023Z,8.77
2023-04-29T15:23:42.146Z,7.80
2023-04-29T15:26:10.588Z,7.30
2023-04-29T15:28:38.768Z,7.67
2023-04-29T15:31:08.349Z,7.60
2023-04-29T15:33:36.772Z,6.47
2023-04-29T15:36:05.420Z,8.03
2023-04-29T15:38:33.548Z,7.47
2023-04-29T15:41:02.867Z,7.63
2023-04-29T15:43:31.843Z,6.73
2023-04-29T15:46:00.307Z,6.97
2023-04-29T15:48:29.782Z,6.70
2023-04-29T15:50:57.825Z,6.27
2023-04-29T15:53:25.952Z,9.23
2023-04-29T15:55:54.591Z,6.57
2023-04-29T15:58:22.739Z,6.53
2023-04-29T16:00:50.964Z,7.00
2023-04-29T16:03:19.354Z,7.30
2023-04-29T16:05:48.997Z,8.23
2023-04-29T16:08:17.052Z,6.87
2023-04-29T16:10:46.026Z,6.50
2023-04-29T16:13:14.079Z,6.77
2023-04-29T16:15:42.155Z,6.23
2023-04-29T16:18:10.626Z,6.40
2023-04-29T16:20:38.699Z,8.73
2023-04-29T16:23:08.253Z,6.20
2023-04-29T16:25:36.288Z,6.63
2023-04-29T16:28:04.353Z,7.13
2023-04-29T16:30:32.409Z,5.77
2023-04-29T16:33:00.615Z,6.97
2023-04-29T16:35:30.991Z,5.73
2023-04-29T16:37:59.273Z,6.60
2023-04-29T16:40:29.664Z,6.33
2023-04-29T16:42:57.915Z,5.50
2023-04-29T16:45:26.302Z,6.47
2023-04-29T16:47:54.648Z,5.83
2023-04-29T16:50:22.801Z,6.80
2023-04-29T16:52:50.842Z,6.10
2023-04-29T16:55:19.076Z,6.60
2023-04-29T16:57:48.499Z,5.10
2023-04-29T17:00:17.104Z,5.67
2023-04-29T17:02:47.432Z,5.97
2023-04-29T17:05:16.739Z,5.67
2023-04-29T17:07:44.839Z,5.23
2023-04-29T17:10:12.956Z,5.00
2023-04-29T17:12:51.308Z,4.83
2023-04-29T17:15:20.994Z,5.50
2023-04-29T17:17:49.302Z,5.30
2023-04-29T17:20:17.358Z,5.50
2023-04-29T17:22:45.477Z,5.23
2023-04-29T17:25:13.802Z,5.87
2023-04-29T17:27:42.256Z,4.80
2023-04-29T17:30:11.156Z,5.20
2023-04-29T17:32:44.610Z,5.23
2023-04-29T17:35:12.745Z,4.90
2023-04-29T17:37:40.888Z,5.33
2023-04-29T17:40:09.932Z,5.00
2023-04-29T17:42:37.994Z,5.10
2023-04-29T17:45:07.040Z,5.97
2023-04-29T17:47:41.102Z,5.00
2023-04-29T17:50:11.311Z,5.40
2023-04-29T17:52:39.534Z,5.00
2023-04-29T17:55:08.553Z,5.40
2023-04-29T17:57:38.066Z,5.13
2023-04-29T18:00:08.731Z,6.23
2023-04-29T18:02:37.244Z,5.27
2023-04-29T18:05:07.604Z,4.90
2023-04-29T18:07:37.191Z,5.80
2023-04-29T18:10:06.063Z,6.90
2023-04-29T18:12:34.234Z,6.03
2023-04-29T18:15:05.996Z,6.53
2023-04-29T18:17:34.292Z,4.93
2023-04-29T18:20:02.424Z,5.03
2023-04-29T18:22:30.467Z,4.70
2023-04-29T18:25:00.323Z,4.10
2023-04-29T18:27:28.546Z,4.67
2023-04-29T18:30:04.119Z,5.10
2023-04-29T18:32:32.203Z,4.53
2023-04-29T18:35:00.742Z,4.80
2023-04-29T18:37:28.959Z,4.80
2023-04-29T18:39:57.262Z,5.07
2023-04-29T18:42:27.052Z,4.30
2023-04-29T18:44:55.592Z,4.80
2023-04-29T18:47:23.853Z,4.30
2023-04-29T18:49:51.985Z,4.30
2023-04-29T18:52:36.308Z,4.60
2023-04-29T18:55:05.177Z,4.57
2023-04-29T18:57:34.695Z,4.40
2023-04-29T19:00:03.764Z,5.23
2023-04-29T19:02:31.981Z,4.70
2023-04-29T19:05:02.780Z,4.30
2023-04-29T19:07:30.974Z,3.63
2023-04-29T19:09:59.012Z,4.30
2023-04-29T19:12:27.303Z,4.80
2023-04-29T19:14:56.839Z,4.20
2023-04-29T19:17:27.129Z,3.63
2023-04-29T19:19:55.826Z,4.07
2023-04-29T19:22:24.177Z,4.53
2023-04-29T19:24:52.336Z,4.03
2023-04-29T19:27:20.589Z,4.20
2023-04-29T19:29:48.704Z,4.10
2023-04-29T19:32:20.660Z,4.20
2023-04-29T19:34:49.035Z,4.10
2023-04-29T19:37:17.197Z,3.97
2023-04-29T19:39:46.062Z,4.27
2023-04-29T19:42:17.176Z,4.53
2023-04-29T19:44:45.392Z,4.50
2023-04-29T19:47:13.548Z,4.30
2023-04-29T19:49:43.572Z,4.30
2023-04-29T19:52:11.816Z,4.70
2023-04-29T19:54:40.940Z,4.23
2023-04-29T19:57:09.077Z,4.10
2023-04-29T19:59:37.288Z,3.80
2023-04-29T20:02:05.720Z,4.40
2023-04-29T20:04:34.880Z,4.00
2023-04-29T20:07:04.348Z,4.70
2023-04-29T20:09:32.822Z,4.30
2023-04-29T20:12:02.707Z,4.60
2023-04-29T20:14:33.209Z,5.03
2023-04-29T20:17:01.952Z,4.20
2023-04-29T20:19:31.454Z,4.07
2023-04-29T20:21:59.554Z,4.00
2023-04-29T20:24:29.108Z,4.20
2023-04-29T20:26:57.388Z,3.80
2023-04-29T20:29:25.787Z,3.83
2023-04-29T20:34:49.631Z,5.17
2023-04-29T20:37:18.043Z,4.00
2023-04-29T20:39:47.612Z,4.23
2023-04-29T20:42:15.768Z,4.30
2023-04-29T20:44:44.054Z,4.53
2023-04-29T20:47:12.560Z,4.20
2023-04-29T20:49:40.724Z,5.03
2023-04-29T20:52:08.817Z,4.10
2023-04-29T20:54:37.001Z,4.17
2023-04-29T20:57:06.510Z,4.23
2023-04-29T20:59:34.921Z,4.00
2023-04-29T21:02:02.996Z,4.10
2023-04-29T21:04:31.153Z,4.80
2023-04-29T21:06:59.252Z,4.00
2023-04-29T21:09:27.378Z,3.90
2023-04-29T21:11:58.054Z,4.50
2023-04-29T21:14:28.350Z,3.40
2023-04-29T21:16:56.393Z,5.10
2023-04-29T21:19:24.503Z,4.07
2023-04-29T21:22:06.427Z,6.13
2023-04-29T21:24:34.512Z,3.70
2023-04-29T21:27:02.702Z,5.50
2023-04-29T21:29:34.647Z,4.60
2023-04-29T21:32:02.746Z,4.60
2023-04-29T21:34:30.873Z,4.27
2023-04-29T21:36:59.193Z,4.00
2023-04-29T21:39:27.256Z,3.90
2023-04-29T21:41:55.305Z,4.33
2023-04-29T21:44:23.412Z,4.10
2023-04-29T21:46:53.236Z,4.00
2023-04-29T21:49:21.490Z,4.10
2023-04-29T21:51:49.557Z,4.67
2023-04-29T21:54:17.621Z,4.00
2023-04-29T21:56:46.207Z,4.00
2023-04-29T21:59:14.314Z,4.10
2023-04-29T22:01:49.283Z,3.63
2023-04-29T22:04:19.180Z,4.73
2023-04-29T22:06:47.436Z,3.93
2023-04-29T22:09:16.280Z,4.33
2023-04-29T22:11:47.508Z,4.10
2023-04-29T22:14:15.592Z,4.23
2023-04-29T22:16:49.128Z,4.00
2023-04-29T22:19:18.654Z,4.40
2023-04-29T22:21:46.828Z,4.37
2023-04-29T22:24:14.917Z,3.83
2023-04-29T22:26:43.025Z,4.60
2023-04-29T22:29:11.476Z,4.70
2023-04-29T22:31:39.594Z,4.13
2023-04-29T22:34:07.714Z,3.40
2023-04-29T22:36:39.774Z,3.83
2023-04-29T22:39:07.874Z,3.97
2023-04-29T22:41:35.983Z,4.07
2023-04-29T22:44:12.808Z,3.53
2023-04-29T22:46:40.967Z,3.90
2023-04-29T22:49:09.051Z,3.53
2023-04-29T22:51:38.516Z,3.67
2023-04-29T22:54:06.660Z,5.80
2023-04-29T22:56:37.194Z,3.80
2023-04-29T22:59:05.304Z,4.00
2023-04-29T23:01:33.396Z,4.50
2023-04-29T23:04:07.083Z,3.73
2023-04-29T23:06:35.513Z,3.80
2023-04-29T23:09:05.149Z,3.50
2023-04-29T23:11:33.200Z,3.50
2023-04-29T23:14:01.275Z,3.53
2023-04-29T23:16:45.364Z,3.80
2023-04-29T23:19:13.469Z,4.10
2023-04-29T23:21:41.983Z,3.60
2023-04-29T23:24:11.512Z,3.90
2023-04-29T23:26:39.577Z,3.47
2023-04-29T23:29:07.670Z,4.37
2023-04-29T23:31:35.875Z,3.47
2023-04-29T23:34:04.018Z,3.53
2023-04-29T23:36:32.157Z,3.37
2023-04-29T23:39:00.651Z,3.60
2023-04-29T23:41:31.811Z,3.10
2023-04-29T23:44:01.286Z,5.13
2023-04-29T23:46:30.102Z,3.87
2023-04-29T23:48:58.194Z,3.47
2023-04-29T23:51:26.924Z,3.37
2023-04-29T23:53:54.983Z,3.40
2023-04-29T23:56:23.891Z,3.67
2023-04-29T23:58:53.394Z,3.10
